Helen D. Coppedge — WCA5274 — position and weather

sailwx.info

Track history (hours):
 
Tides and Currents Weather Stations Pressure Air Temp Water Temp Dewpoint Dewpoint Depression Visibility Wind Speed Wind Dir Waves Ship Positions

Helen D. Coppedge

Owner: MORAN TOWING CORPORATION, Philadelphia, PA. More information available from US FCC via Universal Licensing System and Coast Guard Vessel Documentation Center.

Last reported at 2017-Jan-18 21:30 UTC. Time now 2017-Mar-23 08:16 UTC.
Position N 40°56' W 073°55'.
Warning: this ship's position is months out of date.

Length 30 m; draft 4 m.

Type: Tug. MMSI: 367177370.

Date/timePositionNaut miles runAvg speedWind from/ knotsBaromVisibWave heightAir tempDewpointWater temp
2017-Jan-18 21:30N 40°56' W 073°55'910.0
2017-Jan-18 20:33N 40°47' W 073°60'8 7.9
2017-Jan-18 19:33N 40°39' W 074°02'0 0.1
2017-Jan-18 18:34N 40°39' W 074°02'2 1.7
2017-Jan-18 17:33N 40°40' W 074°04'0 0.0
2017-Jan-18 16:33N 40°40' W 074°04'3 1.2
2017-Jan-18 14:17N 40°39' W 074°07'4 5.8
2017-Jan-18 13:33N 40°40' W 074°02'0 0.3
2017-Jan-18 12:33N 40°39' W 074°02'0 0.0
2017-Jan-18 11:33N 40°39' W 074°02'1 1.3
2017-Jan-18 10:34N 40°38' W 074°03'0 0.0
2017-Jan-18 09:33N 40°38' W 074°03'2 1.5
2017-Jan-18 08:33N 40°40' W 074°02'4 4.2
2017-Jan-18 07:33N 40°39' W 074°07'0 0.0
2017-Jan-18 06:34N 40°39' W 074°07'0 0.0
2017-Jan-18 05:30N 40°39' W 074°07'3 3.7
2017-Jan-18 04:33N 40°38' W 074°03'0 0.0
2017-Jan-18 03:34N 40°38' W 074°03'0 0.2
2017-Jan-18 02:33N 40°38' W 074°03'1 0.9
2017-Jan-18 01:34N 40°39' W 074°04'2 2.4
2017-Jan-18 00:31N 40°39' W 074°07'3 3.5
2017-Jan-17 23:33N 40°38' W 074°03'2 2.2
2017-Jan-17 22:33N 40°39' W 074°06'1 1.0
2017-Jan-17 21:33N 40°39' W 074°07'3 3.2
2017-Jan-17 20:33N 40°38' W 074°03'0 0.0
2017-Jan-17 19:33N 40°38' W 074°03'0 0.2
2017-Jan-17 18:33N 40°38' W 074°03'0 0.0
2017-Jan-17 17:33N 40°38' W 074°03'0 0.0
2017-Jan-17 16:33N 40°38' W 074°03'0 0.0
2017-Jan-17 15:33N 40°38' W 074°03'0 0.0
2017-Jan-17 14:33N 40°38' W 074°03'2 2.2
2017-Jan-17 13:33N 40°39' W 074°06'3 2.9
2017-Jan-17 12:33N 40°39' W 074°02'1 1.3
2017-Jan-17 11:33N 40°41' W 074°03'8 7.6
2017-Jan-17 10:33N 40°48' W 073°59'  
2017-Jan-14 12:22N 40°58' W 073°54'8 9.2
2017-Jan-14 11:33N 40°50' W 073°57'8 7.6
2017-Jan-14 10:33N 40°43' W 074°01'5 4.8
2017-Jan-14 09:29N 40°47' W 073°56'8 0.7
2017-Jan-13 23:17N 40°50' W 073°47'7 9.7
2017-Jan-13 22:33N 40°47' W 073°55'8 7.7
2017-Jan-13 21:33N 40°40' W 073°60'0 0.4
2017-Jan-13 20:34N 40°40' W 074°00'4 3.9
2017-Jan-13 19:33N 40°44' W 074°01'6 6.3
2017-Jan-13 18:33N 40°49' W 073°58'8 7.7
2017-Jan-13 17:33N 40°42' W 074°02'8 8.1
2017-Jan-13 16:32N 40°39' W 074°11'0 0.4
2017-Jan-13 15:33N 40°38' W 074°12'0 0.1
2017-Jan-13 14:33N 40°38' W 074°12'0 0.0
2017-Jan-13 13:33N 40°38' W 074°12'0 0.2
2017-Jan-13 12:33N 40°38' W 074°12'7 6.8
2017-Jan-13 11:34N 40°40' W 074°03'13 1.0
2017-Jan-12 22:20N 40°48' W 073°49'5 6.4
2017-Jan-12 21:33N 40°47' W 073°56'5 5.3
2017-Jan-12 20:33N 40°42' W 073°60'5 5.0
2017-Jan-12 19:33N 40°47' W 073°60'3 0.1
2017-Jan-11 00:33N 40°50' W 073°57'1010.2
2017-Jan-10 23:34N 40°41' W 074°02'1 1.2
2017-Jan-10 22:33N 40°39' W 074°02'3 3.0
2017-Jan-10 21:32N 40°39' W 074°06'1 0.9
2017-Jan-10 20:33N 40°39' W 074°05'1 1.3
2017-Jan-10 19:33N 40°38' W 074°04'2 1.7
2017-Jan-10 18:33N 40°39' W 074°06'0 0.2
2017-Jan-10 17:33N 40°39' W 074°06'1 1.2
2017-Jan-10 16:33N 40°39' W 074°07'0 0.1
2017-Jan-10 15:32N 40°39' W 074°07'0 0.0
2017-Jan-10 09:26N 40°39' W 074°07'0 0.0
2017-Jan-10 06:07N 40°39' W 074°08'1 1.6
2017-Jan-10 05:33N 40°39' W 074°06'2 2.2
2017-Jan-10 04:33N 40°38' W 074°04'0 0.0
2017-Jan-10 03:33N 40°38' W 074°04'0 0.0
2017-Jan-10 02:33N 40°38' W 074°04'3 2.7
2017-Jan-10 01:31N 40°39' W 074°07'0 0.1
2017-Jan-10 00:33N 40°39' W 074°07'0 0.1
2017-Jan-09 23:33N 40°39' W 074°07'0 0.1
2017-Jan-09 22:33N 40°39' W 074°07'1 1.3
2017-Jan-09 21:33N 40°39' W 074°06'2 1.6
2017-Jan-09 20:33N 40°38' W 074°04'0 0.1
2017-Jan-09 19:33N 40°38' W 074°04'1 0.3
2017-Jan-09 16:33N 40°39' W 074°04'0 0.2
2017-Jan-09 15:33N 40°39' W 074°04'2 1.1
2017-Jan-09 13:29N 40°39' W 074°07'3 3.0
2017-Jan-09 12:33N 40°38' W 074°04'3 0.9
2017-Jan-09 09:33N 40°39' W 074°07'2 2.5
2017-Jan-09 08:34N 40°38' W 074°04'0 0.0
2017-Jan-09 07:33N 40°38' W 074°04'0 0.1
2017-Jan-09 06:33N 40°38' W 074°04'0 0.2
2017-Jan-09 05:33N 40°38' W 074°04'0 0.1
2017-Jan-09 04:33N 40°38' W 074°04'0 0.1
2017-Jan-09 03:33N 40°38' W 074°04'0 0.0
2017-Jan-09 02:34N 40°38' W 074°04'3 2.2
2017-Jan-09 01:17N 40°39' W 074°07'3 4.0
2017-Jan-09 00:33N 40°39' W 074°04'1 1.2
2017-Jan-08 23:33N 40°38' W 074°04'0 0.1
2017-Jan-08 22:34N 40°38' W 074°04'3 2.7
2017-Jan-08 21:30N 40°39' W 074°07'  
Track history (hours):
 
Tides and Currents Weather Stations Pressure Air Temp Water Temp Dewpoint Dewpoint Depression Visibility Wind Speed Wind Dir Waves Ship Positions

Helen D. Coppedge

Owner: MORAN TOWING CORPORATION, Philadelphia, PA. More information available from US FCC via Universal Licensing System and Coast Guard Vessel Documentation Center.

Last reported at 2017-Jan-18 21:30 UTC. Time now 2017-Mar-23 08:16 UTC.
Position N 40°56' W 073°55'.
Warning: this ship's position is months out of date.

Length 30 m; draft 4 m.

Type: Tug. MMSI: 367177370.

Date/timePositionNaut miles runAvg speedWind from/ knotsBaromVisibWave heightAir tempDewpointWater temp
2017-Jan-18 21:30N 40°56' W 073°55'910.0
2017-Jan-18 20:33N 40°47' W 073°60'8 7.9
2017-Jan-18 19:33N 40°39' W 074°02'0 0.1
2017-Jan-18 18:34N 40°39' W 074°02'2 1.7
2017-Jan-18 17:33N 40°40' W 074°04'0 0.0
2017-Jan-18 16:33N 40°40' W 074°04'3 1.2
2017-Jan-18 14:17N 40°39' W 074°07'4 5.8
2017-Jan-18 13:33N 40°40' W 074°02'0 0.3
2017-Jan-18 12:33N 40°39' W 074°02'0 0.0
2017-Jan-18 11:33N 40°39' W 074°02'1 1.3
2017-Jan-18 10:34N 40°38' W 074°03'0 0.0
2017-Jan-18 09:33N 40°38' W 074°03'2 1.5
2017-Jan-18 08:33N 40°40' W 074°02'4 4.2
2017-Jan-18 07:33N 40°39' W 074°07'0 0.0
2017-Jan-18 06:34N 40°39' W 074°07'0 0.0
2017-Jan-18 05:30N 40°39' W 074°07'3 3.7
2017-Jan-18 04:33N 40°38' W 074°03'0 0.0
2017-Jan-18 03:34N 40°38' W 074°03'0 0.2
2017-Jan-18 02:33N 40°38' W 074°03'1 0.9
2017-Jan-18 01:34N 40°39' W 074°04'2 2.4
2017-Jan-18 00:31N 40°39' W 074°07'3 3.5
2017-Jan-17 23:33N 40°38' W 074°03'2 2.2
2017-Jan-17 22:33N 40°39' W 074°06'1 1.0
2017-Jan-17 21:33N 40°39' W 074°07'3 3.2
2017-Jan-17 20:33N 40°38' W 074°03'0 0.0
2017-Jan-17 19:33N 40°38' W 074°03'0 0.2
2017-Jan-17 18:33N 40°38' W 074°03'0 0.0
2017-Jan-17 17:33N 40°38' W 074°03'0 0.0
2017-Jan-17 16:33N 40°38' W 074°03'0 0.0
2017-Jan-17 15:33N 40°38' W 074°03'0 0.0
2017-Jan-17 14:33N 40°38' W 074°03'2 2.2
2017-Jan-17 13:33N 40°39' W 074°06'3 2.9
2017-Jan-17 12:33N 40°39' W 074°02'1 1.3
2017-Jan-17 11:33N 40°41' W 074°03'8 7.6
2017-Jan-17 10:33N 40°48' W 073°59'  
2017-Jan-14 12:22N 40°58' W 073°54'8 9.2
2017-Jan-14 11:33N 40°50' W 073°57'8 7.6
2017-Jan-14 10:33N 40°43' W 074°01'5 4.8
2017-Jan-14 09:29N 40°47' W 073°56'8 0.7
2017-Jan-13 23:17N 40°50' W 073°47'7 9.7
2017-Jan-13 22:33N 40°47' W 073°55'8 7.7
2017-Jan-13 21:33N 40°40' W 073°60'0 0.4
2017-Jan-13 20:34N 40°40' W 074°00'4 3.9
2017-Jan-13 19:33N 40°44' W 074°01'6 6.3
2017-Jan-13 18:33N 40°49' W 073°58'8 7.7
2017-Jan-13 17:33N 40°42' W 074°02'8 8.1
2017-Jan-13 16:32N 40°39' W 074°11'0 0.4
2017-Jan-13 15:33N 40°38' W 074°12'0 0.1
2017-Jan-13 14:33N 40°38' W 074°12'0 0.0
2017-Jan-13 13:33N 40°38' W 074°12'0 0.2
2017-Jan-13 12:33N 40°38' W 074°12'7 6.8
2017-Jan-13 11:34N 40°40' W 074°03'13 1.0
2017-Jan-12 22:20N 40°48' W 073°49'5 6.4
2017-Jan-12 21:33N 40°47' W 073°56'5 5.3
2017-Jan-12 20:33N 40°42' W 073°60'5 5.0
2017-Jan-12 19:33N 40°47' W 073°60'3 0.1
2017-Jan-11 00:33N 40°50' W 073°57'1010.2
2017-Jan-10 23:34N 40°41' W 074°02'1 1.2
2017-Jan-10 22:33N 40°39' W 074°02'3 3.0
2017-Jan-10 21:32N 40°39' W 074°06'1 0.9
2017-Jan-10 20:33N 40°39' W 074°05'1 1.3
2017-Jan-10 19:33N 40°38' W 074°04'2 1.7
2017-Jan-10 18:33N 40°39' W 074°06'0 0.2
2017-Jan-10 17:33N 40°39' W 074°06'1 1.2
2017-Jan-10 16:33N 40°39' W 074°07'0 0.1
2017-Jan-10 15:32N 40°39' W 074°07'0 0.0
2017-Jan-10 09:26N 40°39' W 074°07'0 0.0
2017-Jan-10 06:07N 40°39' W 074°08'1 1.6
2017-Jan-10 05:33N 40°39' W 074°06'2 2.2
2017-Jan-10 04:33N 40°38' W 074°04'0 0.0
2017-Jan-10 03:33N 40°38' W 074°04'0 0.0
2017-Jan-10 02:33N 40°38' W 074°04'3 2.7
2017-Jan-10 01:31N 40°39' W 074°07'0 0.1
2017-Jan-10 00:33N 40°39' W 074°07'0 0.1
2017-Jan-09 23:33N 40°39' W 074°07'0 0.1
2017-Jan-09 22:33N 40°39' W 074°07'1 1.3
2017-Jan-09 21:33N 40°39' W 074°06'2 1.6
2017-Jan-09 20:33N 40°38' W 074°04'0 0.1
2017-Jan-09 19:33N 40°38' W 074°04'1 0.3
2017-Jan-09 16:33N 40°39' W 074°04'0 0.2
2017-Jan-09 15:33N 40°39' W 074°04'2 1.1
2017-Jan-09 13:29N 40°39' W 074°07'3 3.0
2017-Jan-09 12:33N 40°38' W 074°04'3 0.9
2017-Jan-09 09:33N 40°39' W 074°07'2 2.5
2017-Jan-09 08:34N 40°38' W 074°04'0 0.0
2017-Jan-09 07:33N 40°38' W 074°04'0 0.1
2017-Jan-09 06:33N 40°38' W 074°04'0 0.2
2017-Jan-09 05:33N 40°38' W 074°04'0 0.1
2017-Jan-09 04:33N 40°38' W 074°04'0 0.1
2017-Jan-09 03:33N 40°38' W 074°04'0 0.0
2017-Jan-09 02:34N 40°38' W 074°04'3 2.2
2017-Jan-09 01:17N 40°39' W 074°07'3 4.0
2017-Jan-09 00:33N 40°39' W 074°04'1 1.2
2017-Jan-08 23:33N 40°38' W 074°04'0 0.1
2017-Jan-08 22:34N 40°38' W 074°04'3 2.7
2017-Jan-08 21:30N 40°39' W 074°07'  

Dump ship's entire track history